sensor_id;sensor_type;location;lat;lon;timestamp;P1;durP1;ratioP1;P2;durP2;ratioP2
32196;SDS011;18697;42.770;23.400;2023-03-02T00:00:44;23.35;;;11.38;;
32196;SDS011;18697;42.770;23.400;2023-03-02T00:03:12;9.50;;;6.47;;
32196;SDS011;18697;42.770;23.400;2023-03-02T00:05:42;8.77;;;4.85;;
32196;SDS011;18697;42.770;23.400;2023-03-02T00:08:11;9.35;;;6.65;;
32196;SDS011;18697;42.770;23.400;2023-03-02T00:10:39;11.65;;;6.63;;
32196;SDS011;18697;42.770;23.400;2023-03-02T00:13:05;13.23;;;7.80;;
32196;SDS011;18697;42.770;23.400;2023-03-02T00:15:30;15.05;;;7.57;;
32196;SDS011;18697;42.770;23.400;2023-03-02T00:17:56;17.02;;;7.00;;
32196;SDS011;18697;42.770;23.400;2023-03-02T00:20:21;10.40;;;6.25;;
32196;SDS011;18697;42.770;23.400;2023-03-02T00:22:46;11.93;;;6.85;;
32196;SDS011;18697;42.770;23.400;2023-03-02T00:25:12;13.23;;;7.90;;
32196;SDS011;18697;42.770;23.400;2023-03-02T00:27:39;11.27;;;8.20;;
32196;SDS011;18697;42.770;23.400;2023-03-02T00:30:05;17.88;;;10.68;;
32196;SDS011;18697;42.770;23.400;2023-03-02T00:32:31;12.18;;;7.72;;
32196;SDS011;18697;42.770;23.400;2023-03-02T00:34:58;8.88;;;5.38;;
32196;SDS011;18697;42.770;23.400;2023-03-02T00:37:23;13.07;;;7.00;;
32196;SDS011;18697;42.770;23.400;2023-03-02T00:39:52;22.08;;;11.05;;
32196;SDS011;18697;42.770;23.400;2023-03-02T00:42:17;25.67;;;12.43;;
32196;SDS011;18697;42.770;23.400;2023-03-02T00:44:43;12.80;;;7.72;;
32196;SDS011;18697;42.770;23.400;2023-03-02T00:47:08;12.80;;;7.07;;
32196;SDS011;18697;42.770;23.400;2023-03-02T00:49:34;7.93;;;5.20;;
32196;SDS011;18697;42.770;23.400;2023-03-02T00:52:00;8.95;;;4.70;;
32196;SDS011;18697;42.770;23.400;2023-03-02T00:54:26;10.45;;;5.80;;
32196;SDS011;18697;42.770;23.400;2023-03-02T00:56:51;6.20;;;4.53;;
32196;SDS011;18697;42.770;23.400;2023-03-02T00:59:17;5.45;;;4.03;;
32196;SDS011;18697;42.770;23.400;2023-03-02T01:01:52;7.10;;;4.68;;
32196;SDS011;18697;42.770;23.400;2023-03-02T01:04:22;5.82;;;4.38;;
32196;SDS011;18697;42.770;23.400;2023-03-02T01:06:49;4.18;;;3.55;;
32196;SDS011;18697;42.770;23.400;2023-03-02T01:09:14;4.95;;;3.63;;
32196;SDS011;18697;42.770;23.400;2023-03-02T01:11:39;5.20;;;4.30;;
32196;SDS011;18697;42.770;23.400;2023-03-02T01:14:05;7.22;;;4.75;;
32196;SDS011;18697;42.770;23.400;2023-03-02T01:16:31;6.47;;;4.60;;
32196;SDS011;18697;42.770;23.400;2023-03-02T01:18:57;5.45;;;4.13;;
32196;SDS011;18697;42.770;23.400;2023-03-02T01:21:22;3.97;;;3.20;;
32196;SDS011;18697;42.770;23.400;2023-03-02T01:23:48;6.18;;;3.97;;
32196;SDS011;18697;42.770;23.400;2023-03-02T01:26:15;4.43;;;3.58;;
32196;SDS011;18697;42.770;23.400;2023-03-02T01:31:43;7.15;;;4.60;;
32196;SDS011;18697;42.770;23.400;2023-03-02T01:34:09;4.03;;;2.90;;
32196;SDS011;18697;42.770;23.400;2023-03-02T01:36:34;4.50;;;3.25;;
32196;SDS011;18697;42.770;23.400;2023-03-02T01:39:00;6.05;;;3.80;;
32196;SDS011;18697;42.770;23.400;2023-03-02T01:41:25;7.15;;;4.18;;
32196;SDS011;18697;42.770;23.400;2023-03-02T01:43:51;7.07;;;4.50;;
32196;SDS011;18697;42.770;23.400;2023-03-02T01:46:18;8.07;;;5.50;;
32196;SDS011;18697;42.770;23.400;2023-03-02T01:48:49;9.00;;;5.65;;
32196;SDS011;18697;42.770;23.400;2023-03-02T01:51:25;5.45;;;3.72;;
32196;SDS011;18697;42.770;23.400;2023-03-02T01:53:57;3.80;;;3.50;;
32196;SDS011;18697;42.770;23.400;2023-03-02T01:56:28;4.60;;;3.45;;
32196;SDS011;18697;42.770;23.400;2023-03-02T01:58:59;5.88;;;4.10;;
32196;SDS011;18697;42.770;23.400;2023-03-02T02:01:28;5.72;;;4.72;;
32196;SDS011;18697;42.770;23.400;2023-03-02T02:03:55;9.55;;;5.18;;
32196;SDS011;18697;42.770;23.400;2023-03-02T02:06:27;10.20;;;5.53;;
32196;SDS011;18697;42.770;23.400;2023-03-02T02:09:01;10.52;;;6.05;;
32196;SDS011;18697;42.770;23.400;2023-03-02T02:11:28;9.90;;;5.63;;
32196;SDS011;18697;42.770;23.400;2023-03-02T02:13:56;7.85;;;5.72;;
32196;SDS011;18697;42.770;23.400;2023-03-02T02:16:23;7.07;;;4.32;;
32196;SDS011;18697;42.770;23.400;2023-03-02T02:18:49;5.00;;;3.67;;
32196;SDS011;18697;42.770;23.400;2023-03-02T02:21:15;5.57;;;3.00;;
32196;SDS011;18697;42.770;23.400;2023-03-02T02:23:42;5.32;;;4.30;;
32196;SDS011;18697;42.770;23.400;2023-03-02T02:27:00;8.07;;;4.68;;
32196;SDS011;18697;42.770;23.400;2023-03-02T02:29:20;4.88;;;3.75;;
32196;SDS011;18697;42.770;23.400;2023-03-02T02:31:52;5.35;;;4.00;;
32196;SDS011;18697;42.770;23.400;2023-03-02T02:34:26;3.92;;;2.83;;
32196;SDS011;18697;42.770;23.400;2023-03-02T02:37:10;3.15;;;2.42;;
32196;SDS011;18697;42.770;23.400;2023-03-02T02:39:40;3.38;;;2.53;;
32196;SDS011;18697;42.770;23.400;2023-03-02T02:42:14;5.35;;;2.90;;
32196;SDS011;18697;42.770;23.400;2023-03-02T02:44:43;7.50;;;2.92;;
32196;SDS011;18697;42.770;23.400;2023-03-02T02:47:15;7.15;;;4.43;;
32196;SDS011;18697;42.770;23.400;2023-03-02T02:49:42;3.70;;;3.22;;
32196;SDS011;18697;42.770;23.400;2023-03-02T02:52:10;6.07;;;3.00;;
32196;SDS011;18697;42.770;23.400;2023-03-02T02:54:43;3.45;;;3.15;;
32196;SDS011;18697;42.770;23.400;2023-03-02T02:57:12;2.85;;;2.50;;
32196;SDS011;18697;42.770;23.400;2023-03-02T02:59:42;3.97;;;3.13;;
32196;SDS011;18697;42.770;23.400;2023-03-02T03:02:21;2.28;;;2.08;;
32196;SDS011;18697;42.770;23.400;2023-03-02T03:04:51;2.55;;;2.28;;
32196;SDS011;18697;42.770;23.400;2023-03-02T03:07:27;3.53;;;2.85;;
32196;SDS011;18697;42.770;23.400;2023-03-02T03:09:56;4.30;;;2.25;;
32196;SDS011;18697;42.770;23.400;2023-03-02T03:12:28;2.90;;;2.42;;
32196;SDS011;18697;42.770;23.400;2023-03-02T03:14:57;3.00;;;2.13;;
32196;SDS011;18697;42.770;23.400;2023-03-02T03:17:23;2.45;;;2.00;;
32196;SDS011;18697;42.770;23.400;2023-03-02T03:19:48;2.70;;;1.70;;
32196;SDS011;18697;42.770;23.400;2023-03-02T03:22:14;3.72;;;2.47;;
32196;SDS011;18697;42.770;23.400;2023-03-02T03:24:41;2.20;;;1.95;;
32196;SDS011;18697;42.770;23.400;2023-03-02T03:27:10;2.28;;;2.00;;
32196;SDS011;18697;42.770;23.400;2023-03-02T03:29:38;2.20;;;2.00;;
32196;SDS011;18697;42.770;23.400;2023-03-02T03:32:05;2.42;;;2.17;;
32196;SDS011;18697;42.770;23.400;2023-03-02T03:34:31;1.83;;;1.70;;
32196;SDS011;18697;42.770;23.400;2023-03-02T03:36:57;2.50;;;2.30;;
32196;SDS011;18697;42.770;23.400;2023-03-02T03:39:29;1.95;;;1.80;;
32196;SDS011;18697;42.770;23.400;2023-03-02T03:41:55;3.45;;;2.30;;
32196;SDS011;18697;42.770;23.400;2023-03-02T03:44:20;1.80;;;1.65;;
32196;SDS011;18697;42.770;23.400;2023-03-02T03:46:46;2.30;;;2.08;;
32196;SDS011;18697;42.770;23.400;2023-03-02T03:49:12;3.28;;;2.50;;
32196;SDS011;18697;42.770;23.400;2023-03-02T03:51:37;5.43;;;2.60;;
32196;SDS011;18697;42.770;23.400;2023-03-02T03:54:03;2.42;;;2.10;;
32196;SDS011;18697;42.770;23.400;2023-03-02T03:56:32;3.38;;;2.30;;
32196;SDS011;18697;42.770;23.400;2023-03-02T03:58:59;2.22;;;2.00;;
32196;SDS011;18697;42.770;23.400;2023-03-02T04:01:33;3.47;;;2.10;;
32196;SDS011;18697;42.770;23.400;2023-03-02T04:04:04;2.65;;;2.28;;
32196;SDS011;18697;42.770;23.400;2023-03-02T04:06:31;5.03;;;2.55;;
32196;SDS011;18697;42.770;23.400;2023-03-02T04:08:57;2.63;;;2.33;;
32196;SDS011;18697;42.770;23.400;2023-03-02T04:11:28;3.28;;;2.70;;
32196;SDS011;18697;42.770;23.400;2023-03-02T04:13:55;3.85;;;2.47;;
32196;SDS011;18697;42.770;23.400;2023-03-02T04:16:20;4.20;;;2.30;;
32196;SDS011;18697;42.770;23.400;2023-03-02T04:18:45;1.50;;;1.42;;
32196;SDS011;18697;42.770;23.400;2023-03-02T04:21:11;2.72;;;1.73;;
32196;SDS011;18697;42.770;23.400;2023-03-02T04:23:36;1.88;;;1.73;;
32196;SDS011;18697;42.770;23.400;2023-03-02T04:26:02;2.30;;;2.10;;
32196;SDS011;18697;42.770;23.400;2023-03-02T04:28:29;3.13;;;2.25;;
32196;SDS011;18697;42.770;23.400;2023-03-02T04:30:55;6.40;;;2.88;;
32196;SDS011;18697;42.770;23.400;2023-03-02T04:33:24;4.03;;;2.40;;
32196;SDS011;18697;42.770;23.400;2023-03-02T04:35:49;2.75;;;2.20;;
32196;SDS011;18697;42.770;23.400;2023-03-02T04:38:15;7.60;;;4.38;;
32196;SDS011;18697;42.770;23.400;2023-03-02T04:40:40;3.50;;;2.33;;
32196;SDS011;18697;42.770;23.400;2023-03-02T04:43:06;14.18;;;8.55;;
32196;SDS011;18697;42.770;23.400;2023-03-02T04:45:31;10.90;;;8.55;;
32196;SDS011;18697;42.770;23.400;2023-03-02T04:47:57;18.77;;;12.57;;
32196;SDS011;18697;42.770;23.400;2023-03-02T04:50:23;2.58;;;2.38;;
32196;SDS011;18697;42.770;23.400;2023-03-02T04:52:48;2.53;;;1.52;;
32196;SDS011;18697;42.770;23.400;2023-03-02T04:55:21;2.13;;;1.70;;
32196;SDS011;18697;42.770;23.400;2023-03-02T04:57:48;2.33;;;2.05;;
32196;SDS011;18697;42.770;23.400;2023-03-02T05:00:14;1.67;;;1.58;;
32196;SDS011;18697;42.770;23.400;2023-03-02T05:02:40;2.42;;;1.95;;
32196;SDS011;18697;42.770;23.400;2023-03-02T05:05:06;6.53;;;4.63;;
32196;SDS011;18697;42.770;23.400;2023-03-02T05:07:33;2.28;;;2.08;;
32196;SDS011;18697;42.770;23.400;2023-03-02T05:09:58;4.22;;;2.25;;
32196;SDS011;18697;42.770;23.400;2023-03-02T05:12:24;2.10;;;1.83;;
32196;SDS011;18697;42.770;23.400;2023-03-02T05:14:49;6.43;;;3.33;;
32196;SDS011;18697;42.770;23.400;2023-03-02T05:17:15;8.32;;;5.32;;
32196;SDS011;18697;42.770;23.400;2023-03-02T05:19:40;4.47;;;2.20;;
32196;SDS011;18697;42.770;23.400;2023-03-02T05:22:05;3.10;;;2.83;;
32196;SDS011;18697;42.770;23.400;2023-03-02T05:24:31;4.70;;;4.30;;
32196;SDS011;18697;42.770;23.400;2023-03-02T05:26:56;3.45;;;2.47;;
32196;SDS011;18697;42.770;23.400;2023-03-02T05:29:22;5.60;;;5.10;;
32196;SDS011;18697;42.770;23.400;2023-03-02T05:31:47;7.78;;;5.63;;
32196;SDS011;18697;42.770;23.400;2023-03-02T05:34:14;4.50;;;4.00;;
32196;SDS011;18697;42.770;23.400;2023-03-02T05:36:41;5.15;;;3.88;;
32196;SDS011;18697;42.770;23.400;2023-03-02T05:39:07;2.97;;;2.75;;
32196;SDS011;18697;42.770;23.400;2023-03-02T05:41:33;3.95;;;3.50;;
32196;SDS011;18697;42.770;23.400;2023-03-02T05:44:00;5.55;;;3.95;;
32196;SDS011;18697;42.770;23.400;2023-03-02T05:46:25;5.25;;;4.40;;
32196;SDS011;18697;42.770;23.400;2023-03-02T05:48:51;4.55;;;3.53;;
32196;SDS011;18697;42.770;23.400;2023-03-02T05:51:16;8.23;;;5.13;;
32196;SDS011;18697;42.770;23.400;2023-03-02T05:53:42;4.28;;;3.88;;
32196;SDS011;18697;42.770;23.400;2023-03-02T05:56:07;4.93;;;3.88;;
32196;SDS011;18697;42.770;23.400;2023-03-02T05:58:33;4.95;;;3.78;;
32196;SDS011;18697;42.770;23.400;2023-03-02T06:00:59;6.70;;;4.15;;
32196;SDS011;18697;42.770;23.400;2023-03-02T06:03:25;4.13;;;3.65;;
32196;SDS011;18697;42.770;23.400;2023-03-02T06:05:50;7.40;;;5.28;;
32196;SDS011;18697;42.770;23.400;2023-03-02T06:08:16;5.43;;;3.97;;
32196;SDS011;18697;42.770;23.400;2023-03-02T06:10:42;8.27;;;4.03;;
32196;SDS011;18697;42.770;23.400;2023-03-02T06:13:08;7.35;;;3.95;;
32196;SDS011;18697;42.770;23.400;2023-03-02T06:15:34;4.40;;;4.00;;
32196;SDS011;18697;42.770;23.400;2023-03-02T06:17:59;5.60;;;4.50;;
32196;SDS011;18697;42.770;23.400;2023-03-02T06:20:24;21.70;;;11.48;;
32196;SDS011;18697;42.770;23.400;2023-03-02T06:22:52;17.52;;;10.10;;
32196;SDS011;18697;42.770;23.400;2023-03-02T06:25:19;13.80;;;8.88;;
32196;SDS011;18697;42.770;23.400;2023-03-02T06:27:45;10.68;;;6.38;;
32196;SDS011;18697;42.770;23.400;2023-03-02T06:30:14;12.30;;;7.65;;
32196;SDS011;18697;42.770;23.400;2023-03-02T06:32:41;17.15;;;8.32;;
32196;SDS011;18697;42.770;23.400;2023-03-02T06:35:06;9.32;;;5.57;;
32196;SDS011;18697;42.770;23.400;2023-03-02T06:37:33;12.00;;;8.52;;
32196;SDS011;18697;42.770;23.400;2023-03-02T06:39:58;12.27;;;8.05;;
32196;SDS011;18697;42.770;23.400;2023-03-02T06:42:24;10.13;;;6.60;;
32196;SDS011;18697;42.770;23.400;2023-03-02T06:44:50;19.85;;;8.13;;
32196;SDS011;18697;42.770;23.400;2023-03-02T06:47:18;15.15;;;8.07;;
32196;SDS011;18697;42.770;23.400;2023-03-02T06:49:44;11.27;;;6.68;;
32196;SDS011;18697;42.770;23.400;2023-03-02T06:52:10;8.20;;;5.78;;
32196;SDS011;18697;42.770;23.400;2023-03-02T06:54:37;12.15;;;6.90;;
32196;SDS011;18697;42.770;23.400;2023-03-02T06:57:03;12.52;;;7.68;;
32196;SDS011;18697;42.770;23.400;2023-03-02T06:59:28;9.27;;;7.13;;
32196;SDS011;18697;42.770;23.400;2023-03-02T07:01:53;9.13;;;6.50;;
32196;SDS011;18697;42.770;23.400;2023-03-02T07:04:19;14.68;;;7.80;;
32196;SDS011;18697;42.770;23.400;2023-03-02T07:06:44;35.17;;;17.25;;
32196;SDS011;18697;42.770;23.400;2023-03-02T07:09:10;17.98;;;11.48;;
32196;SDS011;18697;42.770;23.400;2023-03-02T07:11:35;12.40;;;8.50;;
32196;SDS011;18697;42.770;23.400;2023-03-02T07:14:01;11.80;;;7.15;;
32196;SDS011;18697;42.770;23.400;2023-03-02T07:16:26;11.27;;;7.30;;
32196;SDS011;18697;42.770;23.400;2023-03-02T07:18:52;16.17;;;9.27;;
32196;SDS011;18697;42.770;23.400;2023-03-02T07:21:18;17.45;;;10.75;;
32196;SDS011;18697;42.770;23.400;2023-03-02T07:23:44;12.52;;;7.85;;
32196;SDS011;18697;42.770;23.400;2023-03-02T07:26:10;13.40;;;8.50;;
32196;SDS011;18697;42.770;23.400;2023-03-02T07:28:36;17.15;;;10.07;;
32196;SDS011;18697;42.770;23.400;2023-03-02T07:31:07;16.67;;;10.52;;
32196;SDS011;18697;42.770;23.400;2023-03-02T07:33:33;43.55;;;26.70;;
32196;SDS011;18697;42.770;23.400;2023-03-02T07:35:59;12.15;;;8.30;;
32196;SDS011;18697;42.770;23.400;2023-03-02T07:38:25;34.42;;;17.13;;
32196;SDS011;18697;42.770;23.400;2023-03-02T07:40:50;91.35;;;43.47;;
32196;SDS011;18697;42.770;23.400;2023-03-02T07:43:16;56.75;;;27.90;;
32196;SDS011;18697;42.770;23.400;2023-03-02T07:45:41;15.50;;;8.88;;
32196;SDS011;18697;42.770;23.400;2023-03-02T07:48:07;12.95;;;6.95;;
32196;SDS011;18697;42.770;23.400;2023-03-02T07:50:32;12.70;;;7.03;;
32196;SDS011;18697;42.770;23.400;2023-03-02T07:52:58;13.32;;;8.93;;
32196;SDS011;18697;42.770;23.400;2023-03-02T07:55:23;11.98;;;7.15;;
32196;SDS011;18697;42.770;23.400;2023-03-02T07:57:49;9.50;;;6.93;;
32196;SDS011;18697;42.770;23.400;2023-03-02T08:00:15;13.07;;;8.05;;
32196;SDS011;18697;42.770;23.400;2023-03-02T08:02:41;8.57;;;6.55;;
32196;SDS011;18697;42.770;23.400;2023-03-02T08:05:07;7.10;;;5.72;;
32196;SDS011;18697;42.770;23.400;2023-03-02T08:07:33;12.32;;;7.13;;
32196;SDS011;18697;42.770;23.400;2023-03-02T08:09:59;11.98;;;7.63;;
32196;SDS011;18697;42.770;23.400;2023-03-02T08:12:25;12.88;;;9.93;;
32196;SDS011;18697;42.770;23.400;2023-03-02T08:14:53;17.48;;;9.63;;
32196;SDS011;18697;42.770;23.400;2023-03-02T08:17:18;8.93;;;6.47;;
32196;SDS011;18697;42.770;23.400;2023-03-02T08:19:44;5.22;;;4.40;;
32196;SDS011;18697;42.770;23.400;2023-03-02T08:22:09;6.57;;;4.70;;
32196;SDS011;18697;42.770;23.400;2023-03-02T08:24:36;6.47;;;4.53;;
32196;SDS011;18697;42.770;23.400;2023-03-02T08:27:02;4.13;;;3.72;;
32196;SDS011;18697;42.770;23.400;2023-03-02T08:29:27;5.75;;;4.53;;
32196;SDS011;18697;42.770;23.400;2023-03-02T08:31:53;5.05;;;4.00;;
32196;SDS011;18697;42.770;23.400;2023-03-02T08:34:19;6.07;;;4.95;;
32196;SDS011;18697;42.770;23.400;2023-03-02T08:36:44;9.05;;;5.50;;
32196;SDS011;18697;42.770;23.400;2023-03-02T08:39:10;7.10;;;3.83;;
32196;SDS011;18697;42.770;23.400;2023-03-02T08:41:35;7.35;;;4.97;;
32196;SDS011;18697;42.770;23.400;2023-03-02T08:44:01;8.55;;;4.32;;
32196;SDS011;18697;42.770;23.400;2023-03-02T08:46:26;6.40;;;4.85;;
32196;SDS011;18697;42.770;23.400;2023-03-02T08:48:51;7.60;;;4.85;;
32196;SDS011;18697;42.770;23.400;2023-03-02T08:51:19;6.50;;;4.68;;
32196;SDS011;18697;42.770;23.400;2023-03-02T08:53:47;10.20;;;4.93;;
32196;SDS011;18697;42.770;23.400;2023-03-02T08:58:48;11.88;;;6.10;;
32196;SDS011;18697;42.770;23.400;2023-03-02T09:01:15;7.93;;;4.95;;
32196;SDS011;18697;42.770;23.400;2023-03-02T09:03:45;9.57;;;6.53;;
32196;SDS011;18697;42.770;23.400;2023-03-02T09:06:11;5.60;;;3.92;;
32196;SDS011;18697;42.770;23.400;2023-03-02T09:08:36;5.60;;;4.75;;
32196;SDS011;18697;42.770;23.400;2023-03-02T09:11:02;10.95;;;7.22;;
32196;SDS011;18697;42.770;23.400;2023-03-02T09:13:28;6.85;;;4.72;;
32196;SDS011;18697;42.770;23.400;2023-03-02T09:15:53;9.73;;;6.25;;
32196;SDS011;18697;42.770;23.400;2023-03-02T09:18:19;8.75;;;5.03;;
32196;SDS011;18697;42.770;23.400;2023-03-02T09:20:48;3.88;;;3.53;;
32196;SDS011;18697;42.770;23.400;2023-03-02T09:23:14;5.57;;;4.70;;
32196;SDS011;18697;42.770;23.400;2023-03-02T09:25:39;6.03;;;4.78;;
32196;SDS011;18697;42.770;23.400;2023-03-02T09:28:04;5.43;;;4.10;;
32196;SDS011;18697;42.770;23.400;2023-03-02T09:30:30;4.13;;;3.72;;
32196;SDS011;18697;42.770;23.400;2023-03-02T09:32:56;6.32;;;3.88;;
32196;SDS011;18697;42.770;23.400;2023-03-02T09:35:21;4.25;;;3.83;;
32196;SDS011;18697;42.770;23.400;2023-03-02T09:37:47;5.40;;;4.47;;
32196;SDS011;18697;42.770;23.400;2023-03-02T09:40:19;6.43;;;4.22;;
32196;SDS011;18697;42.770;23.400;2023-03-02T09:48:37;7.97;;;5.68;;
32196;SDS011;18697;42.770;23.400;2023-03-02T09:51:00;12.10;;;6.45;;
32196;SDS011;18697;42.770;23.400;2023-03-02T09:56:49;9.07;;;6.45;;
32196;SDS011;18697;42.770;23.400;2023-03-02T10:01:56;10.45;;;7.03;;
32196;SDS011;18697;42.770;23.400;2023-03-02T10:04:31;10.68;;;5.40;;
32196;SDS011;18697;42.770;23.400;2023-03-02T10:07:12;8.60;;;5.38;;
32196;SDS011;18697;42.770;23.400;2023-03-02T10:09:39;7.40;;;5.60;;
32196;SDS011;18697;42.770;23.400;2023-03-02T10:12:20;8.13;;;5.78;;
32196;SDS011;18697;42.770;23.400;2023-03-02T10:20:02;7.53;;;5.63;;
32196;SDS011;18697;42.770;23.400;2023-03-02T10:22:33;8.85;;;5.13;;
32196;SDS011;18697;42.770;23.400;2023-03-02T10:25:10;7.25;;;5.20;;
32196;SDS011;18697;42.770;23.400;2023-03-02T10:30:41;21.50;;;9.13;;
32196;SDS011;18697;42.770;23.400;2023-03-02T10:33:09;14.25;;;8.10;;
32196;SDS011;18697;42.770;23.400;2023-03-02T10:35:39;21.90;;;10.02;;
32196;SDS011;18697;42.770;23.400;2023-03-02T10:38:19;8.18;;;4.78;;
32196;SDS011;18697;42.770;23.400;2023-03-02T10:40:48;21.17;;;10.15;;
32196;SDS011;18697;42.770;23.400;2023-03-02T10:43:18;19.00;;;9.25;;
32196;SDS011;18697;42.770;23.400;2023-03-02T10:46:05;19.80;;;11.20;;
32196;SDS011;18697;42.770;23.400;2023-03-02T10:48:32;19.05;;;10.20;;
32196;SDS011;18697;42.770;23.400;2023-03-02T10:51:18;13.45;;;7.47;;
32196;SDS011;18697;42.770;23.400;2023-03-02T10:54:00;15.27;;;8.57;;
32196;SDS011;18697;42.770;23.400;2023-03-02T10:56:27;9.73;;;6.43;;
32196;SDS011;18697;42.770;23.400;2023-03-02T10:58:57;13.73;;;7.85;;
32196;SDS011;18697;42.770;23.400;2023-03-02T11:01:28;16.10;;;9.35;;
32196;SDS011;18697;42.770;23.400;2023-03-02T11:03:58;26.63;;;12.30;;
32196;SDS011;18697;42.770;23.400;2023-03-02T11:06:26;37.05;;;20.83;;
32196;SDS011;18697;42.770;23.400;2023-03-02T11:09:00;84.53;;;56.78;;
32196;SDS011;18697;42.770;23.400;2023-03-02T11:11:30;32.47;;;18.00;;
32196;SDS011;18697;42.770;23.400;2023-03-02T11:14:06;19.83;;;11.45;;
32196;SDS011;18697;42.770;23.400;2023-03-02T11:16:41;18.02;;;10.85;;
32196;SDS011;18697;42.770;23.400;2023-03-02T11:19:09;20.38;;;14.35;;
32196;SDS011;18697;42.770;23.400;2023-03-02T11:21:38;28.17;;;18.25;;
32196;SDS011;18697;42.770;23.400;2023-03-02T11:26:49;9.25;;;7.72;;
32196;SDS011;18697;42.770;23.400;2023-03-02T11:31:55;10.63;;;8.00;;
32196;SDS011;18697;42.770;23.400;2023-03-02T11:42:23;7.03;;;4.85;;
32196;SDS011;18697;42.770;23.400;2023-03-02T11:44:54;10.05;;;6.35;;
32196;SDS011;18697;42.770;23.400;2023-03-02T11:47:19;10.60;;;7.15;;
32196;SDS011;18697;42.770;23.400;2023-03-02T11:49:54;16.75;;;12.27;;
32196;SDS011;18697;42.770;23.400;2023-03-02T11:52:25;14.18;;;9.52;;
32196;SDS011;18697;42.770;23.400;2023-03-02T11:55:05;18.27;;;11.38;;
32196;SDS011;18697;42.770;23.400;2023-03-02T11:57:41;38.55;;;18.85;;
32196;SDS011;18697;42.770;23.400;2023-03-02T12:05:25;28.20;;;13.32;;
32196;SDS011;18697;42.770;23.400;2023-03-02T12:08:01;7.50;;;5.15;;
32196;SDS011;18697;42.770;23.400;2023-03-02T12:10:31;25.95;;;11.85;;
32196;SDS011;18697;42.770;23.400;2023-03-02T12:13:17;14.05;;;7.97;;
32196;SDS011;18697;42.770;23.400;2023-03-02T12:15:45;16.33;;;10.30;;
32196;SDS011;18697;42.770;23.400;2023-03-02T12:23:29;12.20;;;7.00;;
32196;SDS011;18697;42.770;23.400;2023-03-02T12:28:56;8.15;;;5.78;;
32196;SDS011;18697;42.770;23.400;2023-03-02T12:31:53;28.05;;;19.75;;
32196;SDS011;18697;42.770;23.400;2023-03-02T12:36:48;28.65;;;17.75;;
32196;SDS011;18697;42.770;23.400;2023-03-02T12:44:51;18.77;;;13.00;;
32196;SDS011;18697;42.770;23.400;2023-03-02T12:48:01;21.80;;;11.98;;
32196;SDS011;18697;42.770;23.400;2023-03-02T12:50:30;14.27;;;8.70;;
32196;SDS011;18697;42.770;23.400;2023-03-02T12:52:58;11.10;;;6.03;;
32196;SDS011;18697;42.770;23.400;2023-03-02T12:55:26;6.90;;;5.53;;
32196;SDS011;18697;42.770;23.400;2023-03-02T12:58:01;16.15;;;8.25;;
32196;SDS011;18697;42.770;23.400;2023-03-02T13:00:28;25.13;;;11.07;;
32196;SDS011;18697;42.770;23.400;2023-03-02T13:02:56;13.82;;;9.23;;
32196;SDS011;18697;42.770;23.400;2023-03-02T13:05:24;12.65;;;8.30;;
32196;SDS011;18697;42.770;23.400;2023-03-02T13:07:59;12.70;;;8.63;;
32196;SDS011;18697;42.770;23.400;2023-03-02T13:10:39;22.15;;;12.20;;
32196;SDS011;18697;42.770;23.400;2023-03-02T13:13:14;29.38;;;13.82;;
32196;SDS011;18697;42.770;23.400;2023-03-02T13:15:49;25.20;;;12.85;;
32196;SDS011;18697;42.770;23.400;2023-03-02T13:18:16;51.55;;;21.58;;
32196;SDS011;18697;42.770;23.400;2023-03-02T13:20:43;26.58;;;12.85;;
32196;SDS011;18697;42.770;23.400;2023-03-02T13:23:11;18.23;;;8.85;;
32196;SDS011;18697;42.770;23.400;2023-03-02T13:25:38;23.55;;;12.38;;
32196;SDS011;18697;42.770;23.400;2023-03-02T13:30:58;64.43;;;22.92;;
32196;SDS011;18697;42.770;23.400;2023-03-02T13:33:45;57.78;;;22.10;;
32196;SDS011;18697;42.770;23.400;2023-03-02T13:38:55;38.85;;;24.38;;
32196;SDS011;18697;42.770;23.400;2023-03-02T13:41:24;22.85;;;15.60;;
32196;SDS011;18697;42.770;23.400;2023-03-02T13:43:50;15.13;;;10.38;;
32196;SDS011;18697;42.770;23.400;2023-03-02T13:48:51;23.70;;;12.57;;
32196;SDS011;18697;42.770;23.400;2023-03-02T13:51:20;12.43;;;6.68;;
32196;SDS011;18697;42.770;23.400;2023-03-02T13:56:33;31.92;;;13.05;;
32196;SDS011;18697;42.770;23.400;2023-03-02T13:59:14;20.50;;;8.82;;
32196;SDS011;18697;42.770;23.400;2023-03-02T14:01:42;11.65;;;6.65;;
32196;SDS011;18697;42.770;23.400;2023-03-02T14:04:11;24.00;;;11.93;;
32196;SDS011;18697;42.770;23.400;2023-03-02T14:06:38;17.25;;;7.85;;
32196;SDS011;18697;42.770;23.400;2023-03-02T14:09:03;7.38;;;4.57;;
32196;SDS011;18697;42.770;23.400;2023-03-02T14:11:39;34.25;;;12.10;;
32196;SDS011;18697;42.770;23.400;2023-03-02T14:14:10;37.63;;;15.05;;
32196;SDS011;18697;42.770;23.400;2023-03-02T14:16:39;32.50;;;13.38;;
32196;SDS011;18697;42.770;23.400;2023-03-02T14:19:05;22.77;;;10.30;;
32196;SDS011;18697;42.770;23.400;2023-03-02T14:21:32;17.17;;;6.43;;
32196;SDS011;18697;42.770;23.400;2023-03-02T14:23:59;10.93;;;6.78;;
32196;SDS011;18697;42.770;23.400;2023-03-02T14:26:31;24.67;;;11.50;;
32196;SDS011;18697;42.770;23.400;2023-03-02T14:28:59;43.20;;;20.35;;
32196;SDS011;18697;42.770;23.400;2023-03-02T14:31:27;33.30;;;15.02;;
32196;SDS011;18697;42.770;23.400;2023-03-02T14:33:53;6.72;;;3.90;;
32196;SDS011;18697;42.770;23.400;2023-03-02T14:36:20;8.05;;;5.55;;
32196;SDS011;18697;42.770;23.400;2023-03-02T14:38:51;6.82;;;4.57;;
32196;SDS011;18697;42.770;23.400;2023-03-02T14:41:18;11.88;;;7.05;;
32196;SDS011;18697;42.770;23.400;2023-03-02T14:43:47;11.50;;;8.27;;
32196;SDS011;18697;42.770;23.400;2023-03-02T14:46:13;12.43;;;6.38;;
32196;SDS011;18697;42.770;23.400;2023-03-02T14:48:38;18.90;;;9.73;;
32196;SDS011;18697;42.770;23.400;2023-03-02T14:51:04;18.88;;;9.23;;
32196;SDS011;18697;42.770;23.400;2023-03-02T14:53:38;26.48;;;10.63;;
32196;SDS011;18697;42.770;23.400;2023-03-02T14:56:04;14.73;;;9.18;;
32196;SDS011;18697;42.770;23.400;2023-03-02T14:58:32;17.25;;;9.20;;
32196;SDS011;18697;42.770;23.400;2023-03-02T15:00:58;17.77;;;8.52;;
32196;SDS011;18697;42.770;23.400;2023-03-02T15:03:24;22.30;;;10.55;;
32196;SDS011;18697;42.770;23.400;2023-03-02T15:05:51;10.57;;;6.05;;
32196;SDS011;18697;42.770;23.400;2023-03-02T15:08:18;19.20;;;10.98;;
32196;SDS011;18697;42.770;23.400;2023-03-02T15:10:44;20.25;;;11.45;;
32196;SDS011;18697;42.770;23.400;2023-03-02T15:13:11;18.65;;;11.07;;
32196;SDS011;18697;42.770;23.400;2023-03-02T15:15:41;31.98;;;16.38;;
32196;SDS011;18697;42.770;23.400;2023-03-02T15:18:07;22.20;;;9.88;;
32196;SDS011;18697;42.770;23.400;2023-03-02T15:20:35;35.65;;;16.30;;
32196;SDS011;18697;42.770;23.400;2023-03-02T15:23:01;17.20;;;9.50;;
32196;SDS011;18697;42.770;23.400;2023-03-02T15:25:27;18.48;;;11.23;;
32196;SDS011;18697;42.770;23.400;2023-03-02T15:27:54;18.50;;;11.27;;
32196;SDS011;18697;42.770;23.400;2023-03-02T15:30:20;23.15;;;10.43;;
32196;SDS011;18697;42.770;23.400;2023-03-02T15:32:48;20.70;;;11.40;;
32196;SDS011;18697;42.770;23.400;2023-03-02T15:35:14;17.95;;;9.75;;
32196;SDS011;18697;42.770;23.400;2023-03-02T15:37:39;15.45;;;9.80;;
32196;SDS011;18697;42.770;23.400;2023-03-02T15:40:05;15.68;;;9.68;;
32196;SDS011;18697;42.770;23.400;2023-03-02T15:42:31;18.50;;;9.25;;